createdAt,value
2018-06-18T00:00:52.736Z,6.90
2018-06-18T00:01:52.500Z,7.50
2018-06-18T00:02:54.264Z,6.90
2018-06-18T00:03:52.498Z,7.80
2018-06-18T00:04:52.498Z,8.10
2018-06-18T00:05:52.481Z,7.20
2018-06-18T00:06:58.481Z,7.40
2018-06-18T00:07:52.496Z,9.80
2018-06-18T00:08:52.543Z,8.80
2018-06-18T00:09:52.514Z,8.90
2018-06-18T00:10:52.498Z,9.40
2018-06-18T00:11:54.775Z,9.20
2018-06-18T00:12:52.513Z,9.80
2018-06-18T00:13:52.513Z,9.00
2018-06-18T00:14:58.528Z,8.60
2018-06-18T00:15:52.516Z,9.30
2018-06-18T00:16:52.531Z,8.40
2018-06-18T00:17:52.528Z,8.40
2018-06-18T00:18:52.508Z,7.50
2018-06-18T00:19:52.551Z,8.30
2018-06-18T00:20:52.724Z,9.80
2018-06-18T00:21:52.554Z,8.30
2018-06-18T00:22:52.502Z,10.60
2018-06-18T00:23:52.508Z,7.60
2018-06-18T00:24:54.318Z,7.90
2018-06-18T00:25:52.528Z,8.10
2018-06-18T00:26:52.498Z,7.70
2018-06-18T00:27:52.538Z,8.60
2018-06-18T00:28:52.510Z,8.30
2018-06-18T00:29:52.498Z,8.00
2018-06-18T00:30:52.517Z,9.90
2018-06-18T00:31:52.498Z,9.40
2018-06-18T00:32:52.490Z,8.50
2018-06-18T00:33:52.529Z,7.00
2018-06-18T00:34:52.508Z,9.40
2018-06-18T00:35:52.498Z,8.60
2018-06-18T00:36:54.467Z,11.30
2018-06-18T00:37:52.019Z,7.30
2018-06-18T00:38:52.518Z,8.50
2018-06-18T00:39:58.176Z,9.60
2018-06-18T00:40:52.038Z,7.50
2018-06-18T00:41:52.508Z,7.10
2018-06-18T00:42:52.518Z,10.20
2018-06-18T00:43:52.515Z,7.90
2018-06-18T00:44:52.493Z,7.60
2018-06-18T00:45:52.763Z,8.10
2018-06-18T00:46:52.534Z,7.50
2018-06-18T00:48:00.033Z,9.30
2018-06-18T00:48:52.550Z,10.10
2018-06-18T00:49:52.829Z,7.20
2018-06-18T00:50:52.530Z,9.00
2018-06-18T00:51:52.516Z,9.20
2018-06-18T00:52:52.556Z,7.10
2018-06-18T00:53:52.569Z,9.40
2018-06-18T00:54:58.555Z,7.50
2018-06-18T00:55:52.557Z,9.00
2018-06-18T00:56:52.505Z,8.30
2018-06-18T00:57:52.488Z,11.70
2018-06-18T00:58:52.498Z,9.00
2018-06-18T00:59:52.489Z,9.10
2018-06-18T01:00:52.518Z,7.60
2018-06-18T01:01:52.498Z,7.80
2018-06-18T01:02:52.007Z,9.20
2018-06-18T01:03:52.479Z,10.30
2018-06-18T01:04:54.273Z,9.20
2018-06-18T01:05:52.518Z,8.30
2018-06-18T01:06:52.507Z,8.50
2018-06-18T01:07:52.500Z,10.90
2018-06-18T01:08:52.534Z,7.90
2018-06-18T01:09:52.510Z,7.90
2018-06-18T01:10:52.518Z,7.90
2018-06-18T01:11:52.517Z,8.20
2018-06-18T01:12:52.518Z,8.90
2018-06-18T01:13:52.553Z,10.70
2018-06-18T01:14:52.548Z,8.50
2018-06-18T01:15:52.534Z,8.30
2018-06-18T01:16:52.777Z,8.90
2018-06-18T01:17:52.564Z,7.60
2018-06-18T01:18:52.547Z,6.90
2018-06-18T01:19:52.533Z,9.40
2018-06-18T01:20:52.518Z,6.40
2018-06-18T01:21:57.889Z,8.20
2018-06-18T01:22:52.566Z,8.40
2018-06-18T01:23:52.574Z,8.60
2018-06-18T01:24:52.507Z,9.40
2018-06-18T01:25:57.977Z,9.40
2018-06-18T01:26:52.488Z,8.70
2018-06-18T01:27:52.758Z,12.30
2018-06-18T01:28:52.504Z,8.40
2018-06-18T01:29:52.495Z,8.30
2018-06-18T01:30:52.507Z,9.40
2018-06-18T01:31:52.517Z,7.30
2018-06-18T01:32:52.539Z,10.20
2018-06-18T01:33:54.806Z,6.30
2018-06-18T01:34:57.888Z,8.50
2018-06-18T01:35:52.507Z,8.40
2018-06-18T01:36:52.551Z,9.60
2018-06-18T01:37:52.544Z,9.60
2018-06-18T01:38:52.548Z,7.40
2018-06-18T01:39:52.548Z,9.00
2018-06-18T01:40:52.552Z,6.90
2018-06-18T01:41:52.578Z,9.20
2018-06-18T01:42:53.508Z,6.90
2018-06-18T01:43:52.553Z,7.20
2018-06-18T01:44:52.548Z,10.30
2018-06-18T01:45:52.560Z,6.90
2018-06-18T01:46:52.574Z,7.50
2018-06-18T01:47:52.567Z,8.60
2018-06-18T01:48:52.593Z,7.30
2018-06-18T01:49:52.565Z,6.80
2018-06-18T01:50:52.579Z,10.20
2018-06-18T01:51:58.480Z,8.10
2018-06-18T01:52:52.518Z,8.80
2018-06-18T01:53:52.552Z,6.90
2018-06-18T01:54:52.513Z,8.10
2018-06-18T01:55:52.534Z,8.90
2018-06-18T01:56:52.527Z,9.60
2018-06-18T01:57:52.527Z,7.80
2018-06-18T01:58:52.550Z,8.90
2018-06-18T01:59:52.515Z,8.30
2018-06-18T02:00:52.561Z,7.80
2018-06-18T02:01:52.547Z,6.10
2018-06-18T02:02:52.555Z,9.30
2018-06-18T02:03:51.951Z,7.80
2018-06-18T02:04:58.527Z,8.40
2018-06-18T02:05:52.559Z,7.40
2018-06-18T02:06:53.538Z,7.70
2018-06-18T02:07:52.530Z,8.40
2018-06-18T02:08:52.554Z,7.70
2018-06-18T02:09:52.528Z,7.40
2018-06-18T02:10:52.529Z,7.50
2018-06-18T02:11:52.558Z,7.50
2018-06-18T02:12:52.569Z,10.50
2018-06-18T02:13:58.571Z,9.40
2018-06-18T02:14:58.580Z,8.70
2018-06-18T02:16:06.589Z,7.30
2018-06-18T02:16:52.560Z,8.30
2018-06-18T02:17:58.567Z,7.80
2018-06-18T02:18:52.582Z,8.30
2018-06-18T02:19:52.559Z,7.70
2018-06-18T02:20:52.555Z,8.40
2018-06-18T02:21:54.288Z,8.80
2018-06-18T02:22:52.515Z,7.00
2018-06-18T02:23:52.498Z,8.30
2018-06-18T02:24:52.548Z,6.80
2018-06-18T02:25:52.511Z,7.10
2018-06-18T02:26:52.549Z,6.10
2018-06-18T02:27:52.550Z,5.90
2018-06-18T02:28:58.554Z,6.90
2018-06-18T02:29:52.556Z,6.90
2018-06-18T02:31:12.571Z,6.60
2018-06-18T02:31:52.563Z,6.10
2018-06-18T02:32:52.574Z,9.00
2018-06-18T02:33:52.568Z,7.50
2018-06-18T02:34:52.577Z,6.60
2018-06-18T02:35:52.570Z,6.40
2018-06-18T02:36:52.581Z,5.80
2018-06-18T02:37:52.558Z,8.40
2018-06-18T02:38:52.567Z,8.70
2018-06-18T02:39:52.560Z,8.50
2018-06-18T02:40:52.579Z,8.00
2018-06-18T02:41:52.586Z,6.90
2018-06-18T02:42:52.588Z,6.90
2018-06-18T02:43:52.578Z,9.00
2018-06-18T02:45:52.542Z,9.40
2018-06-18T02:46:52.574Z,9.30
2018-06-18T02:47:52.507Z,8.80
2018-06-18T02:48:52.490Z,6.50
2018-06-18T02:49:52.528Z,7.70
2018-06-18T02:50:59.002Z,8.30
2018-06-18T02:51:52.512Z,8.40
2018-06-18T02:52:57.875Z,10.50
2018-06-18T02:53:52.522Z,10.20
2018-06-18T02:54:52.575Z,7.80
2018-06-18T02:55:52.568Z,11.60
2018-06-18T02:56:54.831Z,9.70
2018-06-18T02:57:58.544Z,7.60
2018-06-18T02:58:52.553Z,9.50
2018-06-18T02:59:52.579Z,9.80
2018-06-18T03:00:52.570Z,7.00
2018-06-18T03:01:52.577Z,8.20
2018-06-18T03:02:52.580Z,9.20
2018-06-18T03:03:54.082Z,8.00
2018-06-18T03:04:52.185Z,8.50
2018-06-18T03:05:59.925Z,8.10
2018-06-18T03:06:52.234Z,9.70
2018-06-18T03:07:58.099Z,13.10
2018-06-18T03:08:52.278Z,8.50
2018-06-18T03:09:52.271Z,7.90
2018-06-18T03:10:52.246Z,8.10
2018-06-18T03:11:52.215Z,11.00
2018-06-18T03:12:52.308Z,10.10
2018-06-18T03:13:52.316Z,8.60
2018-06-18T03:14:52.106Z,7.90
2018-06-18T03:15:53.405Z,9.70
2018-06-18T03:16:52.134Z,10.60
2018-06-18T03:17:52.115Z,8.90
2018-06-18T03:18:54.139Z,10.20
2018-06-18T03:19:52.168Z,8.60
2018-06-18T03:20:52.155Z,10.10
2018-06-18T03:21:57.512Z,8.80
2018-06-18T03:22:52.129Z,8.80
2018-06-18T03:23:58.042Z,9.80
2018-06-18T03:24:52.237Z,9.50
2018-06-18T03:25:52.116Z,9.30
2018-06-18T03:26:57.455Z,9.30
2018-06-18T03:27:54.003Z,9.20
2018-06-18T03:28:52.219Z,8.80
2018-06-18T03:29:52.183Z,11.10
2018-06-18T03:30:57.436Z,9.60
2018-06-18T03:31:52.173Z,10.20
2018-06-18T03:32:52.182Z,10.50
2018-06-18T03:33:52.793Z,9.40
2018-06-18T03:34:52.130Z,10.80
2018-06-18T03:35:52.116Z,8.90
2018-06-18T03:36:52.189Z,10.50
2018-06-18T03:37:52.297Z,9.60
2018-06-18T03:38:52.193Z,11.30
2018-06-18T03:39:52.231Z,9.40
2018-06-18T03:40:52.194Z,10.60
2018-06-18T03:41:52.248Z,12.20
2018-06-18T03:42:52.314Z,10.70
2018-06-18T03:43:52.249Z,9.70
2018-06-18T03:44:51.881Z,9.10
2018-06-18T03:45:52.254Z,10.00
2018-06-18T03:46:52.248Z,11.80
2018-06-18T03:47:52.215Z,10.70
2018-06-18T03:48:58.119Z,11.70
2018-06-18T03:49:52.241Z,10.70
2018-06-18T03:50:52.282Z,10.30
2018-06-18T03:51:52.244Z,10.00
2018-06-18T03:52:52.324Z,8.90
2018-06-18T03:53:51.989Z,12.30
2018-06-18T03:54:52.360Z,11.20
2018-06-18T03:55:51.806Z,10.10
2018-06-18T03:56:51.891Z,10.80
2018-06-18T03:57:52.262Z,11.00
2018-06-18T03:58:52.214Z,11.70
2018-06-18T03:59:52.244Z,10.70
2018-06-18T04:00:52.230Z,9.50
2018-06-18T04:01:58.112Z,9.40
2018-06-18T04:02:58.304Z,8.20
2018-06-18T04:03:52.297Z,12.20
2018-06-18T04:04:52.319Z,10.00
2018-06-18T04:05:51.876Z,11.20
2018-06-18T04:06:52.099Z,10.10
2018-06-18T04:07:52.114Z,9.40
2018-06-18T04:08:52.599Z,8.20
2018-06-18T04:09:58.090Z,10.40
2018-06-18T04:10:53.966Z,10.60
2018-06-18T04:11:52.336Z,11.30
2018-06-18T04:12:57.943Z,9.10
2018-06-18T04:13:52.134Z,9.40
2018-06-18T04:15:06.062Z,8.70
2018-06-18T04:15:58.082Z,9.30
2018-06-18T04:16:52.108Z,10.80
2018-06-18T04:17:53.802Z,10.40
2018-06-18T04:18:52.126Z,8.70
2018-06-18T04:19:52.132Z,10.40
2018-06-18T04:20:52.183Z,9.20
2018-06-18T04:21:52.107Z,8.10
2018-06-18T04:22:52.141Z,10.00
2018-06-18T04:23:52.177Z,13.00
2018-06-18T04:24:52.116Z,11.30
2018-06-18T04:25:52.179Z,12.40
2018-06-18T04:26:52.120Z,8.80
2018-06-18T04:27:58.120Z,8.50
2018-06-18T04:28:52.102Z,8.60
2018-06-18T04:29:52.157Z,9.40
2018-06-18T04:30:52.330Z,8.90
2018-06-18T04:31:52.307Z,10.40
2018-06-18T04:32:52.093Z,10.50
2018-06-18T04:34:52.063Z,10.70
2018-06-18T04:35:52.099Z,10.90
2018-06-18T04:36:53.830Z,9.40
2018-06-18T04:37:52.097Z,10.40
2018-06-18T04:38:57.531Z,10.20
2018-06-18T04:39:52.055Z,9.90
2018-06-18T04:40:52.150Z,9.20
2018-06-18T04:41:52.073Z,8.40
2018-06-18T04:42:58.116Z,9.50
2018-06-18T04:43:52.048Z,9.50
2018-06-18T04:44:52.142Z,10.30
2018-06-18T04:45:52.123Z,11.30
2018-06-18T04:46:57.401Z,12.80
2018-06-18T04:47:52.105Z,9.90
2018-06-18T04:48:52.175Z,10.20
2018-06-18T04:49:54.127Z,10.20
2018-06-18T04:50:52.813Z,13.40
2018-06-18T04:51:54.335Z,9.70
2018-06-18T04:52:52.186Z,9.00
2018-06-18T04:53:52.187Z,10.10
2018-06-18T04:54:52.316Z,11.10
2018-06-18T04:55:52.193Z,9.50
2018-06-18T04:56:58.174Z,9.50
2018-06-18T04:57:54.147Z,8.40
2018-06-18T04:58:52.135Z,8.50
2018-06-18T04:59:52.107Z,10.90
2018-06-18T05:00:52.191Z,10.50
2018-06-18T05:01:52.698Z,10.50
2018-06-18T05:02:51.852Z,9.80
2018-06-18T05:03:52.623Z,9.30
2018-06-18T05:04:52.695Z,14.20
2018-06-18T05:05:52.668Z,9.10
2018-06-18T05:06:52.667Z,11.50
2018-06-18T05:07:52.158Z,10.70
2018-06-18T05:08:52.076Z,10.20
2018-06-18T05:09:52.095Z,11.70
2018-06-18T05:10:52.373Z,10.90
2018-06-18T05:11:52.114Z,8.90
2018-06-18T05:12:52.171Z,11.10
2018-06-18T05:13:51.815Z,13.00
2018-06-18T05:14:52.156Z,9.70
2018-06-18T05:15:52.178Z,12.50
2018-06-18T05:16:57.420Z,11.70
2018-06-18T05:17:52.105Z,11.60
2018-06-18T05:18:52.081Z,8.70
2018-06-18T05:19:52.619Z,9.90
2018-06-18T05:20:54.114Z,9.50
2018-06-18T05:21:52.167Z,10.10
2018-06-18T05:22:52.154Z,9.90
2018-06-18T05:23:52.171Z,12.60
2018-06-18T05:24:52.163Z,12.20
2018-06-18T05:25:54.372Z,9.00
2018-06-18T05:26:52.164Z,9.90
2018-06-18T05:27:52.162Z,11.10
2018-06-18T05:28:52.304Z,9.50
2018-06-18T05:29:52.169Z,9.20
2018-06-18T05:30:58.175Z,8.60
2018-06-18T05:31:58.135Z,8.60
2018-06-18T05:32:52.102Z,10.80
2018-06-18T05:33:52.113Z,10.20
2018-06-18T05:34:52.101Z,9.40
2018-06-18T05:35:52.105Z,9.50
2018-06-18T05:36:52.067Z,11.10
2018-06-18T05:37:52.113Z,9.60
2018-06-18T05:38:52.119Z,9.10
2018-06-18T05:39:53.508Z,9.50
2018-06-18T05:40:52.134Z,10.00
2018-06-18T05:41:52.094Z,10.80
2018-06-18T05:42:54.321Z,12.20
2018-06-18T05:43:52.139Z,12.10
2018-06-18T05:44:52.116Z,8.90
2018-06-18T05:45:52.166Z,9.70
2018-06-18T05:46:52.151Z,12.80
2018-06-18T05:47:52.179Z,10.00
2018-06-18T05:48:52.163Z,9.30
2018-06-18T05:49:52.129Z,12.10
2018-06-18T05:50:52.171Z,13.90
2018-06-18T05:51:51.770Z,10.20
2018-06-18T05:52:52.191Z,10.40
2018-06-18T05:53:52.120Z,10.20
2018-06-18T05:54:52.121Z,9.40
2018-06-18T05:55:52.384Z,8.80
2018-06-18T05:56:52.257Z,9.60
2018-06-18T05:57:52.436Z,9.20
2018-06-18T05:58:52.145Z,9.00
2018-06-18T05:59:52.116Z,10.60
2018-06-18T06:00:52.121Z,9.60
2018-06-18T06:01:52.181Z,11.50
2018-06-18T06:02:51.748Z,9.60
2018-06-18T06:03:58.395Z,11.10
2018-06-18T06:04:52.109Z,11.10
2018-06-18T06:05:52.112Z,11.20
2018-06-18T06:06:51.711Z,9.60
2018-06-18T06:07:52.152Z,11.80
2018-06-18T06:08:52.391Z,9.20
2018-06-18T06:09:52.157Z,11.50
2018-06-18T06:10:52.083Z,13.40
2018-06-18T06:11:58.426Z,13.30
2018-06-18T06:12:52.453Z,10.30
2018-06-18T06:13:52.131Z,11.50
2018-06-18T06:14:52.820Z,8.70
2018-06-18T06:15:52.385Z,12.40
2018-06-18T06:16:52.701Z,11.20
2018-06-18T06:17:52.393Z,11.10
2018-06-18T06:18:52.111Z,10.50
2018-06-18T06:19:52.063Z,12.00
2018-06-18T06:20:52.645Z,10.80
2018-06-18T06:21:52.392Z,11.20
2018-06-18T06:22:51.752Z,11.10
2018-06-18T06:23:52.339Z,11.40
2018-06-18T06:24:52.132Z,11.10
2018-06-18T06:25:52.096Z,11.60
2018-06-18T06:26:52.115Z,11.80
2018-06-18T06:27:52.129Z,10.20
2018-06-18T06:28:52.155Z,12.80
2018-06-18T06:29:58.437Z,9.80
2018-06-18T06:30:52.182Z,12.30
2018-06-18T06:31:52.132Z,12.10
2018-06-18T06:32:52.672Z,9.30
2018-06-18T06:33:52.392Z,8.80
2018-06-18T06:34:53.705Z,10.10
2018-06-18T06:35:52.152Z,12.10
2018-06-18T06:36:52.398Z,9.80
2018-06-18T06:37:52.161Z,12.10
2018-06-18T06:38:52.137Z,9.60
2018-06-18T06:39:52.170Z,12.20
2018-06-18T06:40:52.386Z,11.50
2018-06-18T06:41:52.401Z,11.40
2018-06-18T06:42:52.379Z,12.80
2018-06-18T06:43:52.096Z,10.20
2018-06-18T06:44:52.435Z,11.00
2018-06-18T06:45:52.338Z,11.60
2018-06-18T06:46:52.658Z,9.50
2018-06-18T06:47:52.139Z,11.10
2018-06-18T06:48:52.214Z,12.50
2018-06-18T06:49:52.783Z,9.70
2018-06-18T06:50:52.441Z,14.00
2018-06-18T06:51:52.353Z,13.70
2018-06-18T06:52:51.657Z,14.50
2018-06-18T06:53:53.406Z,11.40
2018-06-18T06:54:52.177Z,11.90
2018-06-18T06:55:54.165Z,13.20
2018-06-18T06:56:52.206Z,10.80
2018-06-18T06:57:52.138Z,9.90
2018-06-18T06:59:00.437Z,12.70
2018-06-18T06:59:52.400Z,12.60
2018-06-18T07:00:53.375Z,10.80
2018-06-18T07:01:52.737Z,12.80
2018-06-18T07:02:52.170Z,11.30
2018-06-18T07:03:52.409Z,11.20
2018-06-18T07:04:52.445Z,11.70
2018-06-18T07:05:52.378Z,12.00
2018-06-18T07:06:52.447Z,10.00
2018-06-18T07:07:52.401Z,10.60
2018-06-18T07:08:52.140Z,11.00
2018-06-18T07:09:52.146Z,11.90
2018-06-18T07:10:54.356Z,12.80
2018-06-18T07:11:52.700Z,12.40
2018-06-18T07:12:52.400Z,10.90
2018-06-18T07:13:53.133Z,11.40
2018-06-18T07:14:52.719Z,9.70
2018-06-18T07:15:52.122Z,10.40
2018-06-18T07:16:52.313Z,9.20
2018-06-18T07:17:52.407Z,9.20
2018-06-18T07:18:52.409Z,10.00
2018-06-18T07:19:52.729Z,11.30
2018-06-18T07:20:52.468Z,9.60
2018-06-18T07:21:52.155Z,10.30
2018-06-18T07:22:52.415Z,10.10
2018-06-18T07:23:51.944Z,11.90
2018-06-18T07:24:52.399Z,9.50
2018-06-18T07:25:57.570Z,10.60
2018-06-18T07:26:52.413Z,8.70
2018-06-18T07:27:52.204Z,10.50
2018-06-18T07:28:52.207Z,10.40
2018-06-18T07:29:52.197Z,9.30
2018-06-18T07:30:52.864Z,11.20
2018-06-18T07:31:53.863Z,7.80
2018-06-18T07:32:52.123Z,7.80
2018-06-18T07:33:52.642Z,10.80
2018-06-18T07:34:53.959Z,10.70
2018-06-18T07:35:52.400Z,9.90
2018-06-18T07:36:52.429Z,8.40
2018-06-18T07:37:52.245Z,12.40
2018-06-18T07:38:52.749Z,10.60
2018-06-18T07:39:52.110Z,9.80
2018-06-18T07:40:52.179Z,9.30
2018-06-18T07:41:52.408Z,9.70
2018-06-18T07:42:51.733Z,8.70
2018-06-18T07:43:51.953Z,9.90
2018-06-18T07:44:52.143Z,8.10
2018-06-18T07:45:52.418Z,9.20
2018-06-18T07:46:51.686Z,9.00
2018-06-18T07:47:52.175Z,7.60
2018-06-18T07:48:52.195Z,9.90
2018-06-18T07:49:54.195Z,9.30
2018-06-18T07:50:52.155Z,8.50
2018-06-18T07:51:52.263Z,9.70
2018-06-18T07:52:52.411Z,10.20
2018-06-18T07:53:52.138Z,11.20
2018-06-18T07:54:52.416Z,9.30
2018-06-18T07:55:52.750Z,9.70
2018-06-18T07:56:52.226Z,9.70
2018-06-18T07:57:52.424Z,11.60
2018-06-18T07:58:51.692Z,9.60
2018-06-18T07:59:52.202Z,8.60
2018-06-18T08:00:52.709Z,8.10
2018-06-18T08:01:52.392Z,8.40
2018-06-18T08:02:52.060Z,10.60
2018-06-18T08:03:52.221Z,9.40
2018-06-18T08:04:51.700Z,9.00
2018-06-18T08:05:52.236Z,7.80
2018-06-18T08:06:52.205Z,8.90
2018-06-18T08:07:52.191Z,8.90
2018-06-18T08:08:52.422Z,9.60
2018-06-18T08:09:52.464Z,10.00
2018-06-18T08:10:51.923Z,9.50
2018-06-18T08:11:51.975Z,9.20
2018-06-18T08:12:52.428Z,8.70
2018-06-18T08:13:52.428Z,9.20
2018-06-18T08:14:52.322Z,10.00
2018-06-18T08:15:52.318Z,6.70
2018-06-18T08:16:52.200Z,8.90
2018-06-18T08:17:52.739Z,9.10
2018-06-18T08:18:54.381Z,9.50
2018-06-18T08:19:58.204Z,10.30
2018-06-18T08:20:58.195Z,7.40
2018-06-18T08:21:52.426Z,9.10
2018-06-18T08:22:52.422Z,9.70
2018-06-18T08:23:52.257Z,9.80
2018-06-18T08:24:52.195Z,9.00
2018-06-18T08:25:52.865Z,9.30
2018-06-18T08:26:51.795Z,8.90
2018-06-18T08:27:52.478Z,9.30
2018-06-18T08:28:52.880Z,7.20
2018-06-18T08:29:52.141Z,10.70
2018-06-18T08:30:52.199Z,9.40
2018-06-18T08:31:52.439Z,8.90
2018-06-18T08:32:52.126Z,7.90
2018-06-18T08:33:52.434Z,10.40
2018-06-18T08:34:52.218Z,8.50
2018-06-18T08:35:52.171Z,7.50
2018-06-18T08:36:52.431Z,7.70
2018-06-18T08:37:52.438Z,11.30
2018-06-18T08:38:52.141Z,8.50
2018-06-18T08:39:52.213Z,9.70
2018-06-18T08:40:54.269Z,9.90
2018-06-18T08:41:52.199Z,7.80
2018-06-18T08:42:52.173Z,7.60
2018-06-18T08:43:52.227Z,10.10
2018-06-18T08:44:52.437Z,10.10
2018-06-18T08:45:52.231Z,10.50
2018-06-18T08:46:52.242Z,8.00
2018-06-18T08:47:52.461Z,10.10
2018-06-18T08:48:51.678Z,9.70
2018-06-18T08:49:52.442Z,8.10
2018-06-18T08:50:52.222Z,8.50
2018-06-18T08:51:52.445Z,9.60
2018-06-18T08:52:52.442Z,8.80
2018-06-18T08:53:51.706Z,9.70
2018-06-18T08:54:52.446Z,14.60
2018-06-18T08:55:52.438Z,13.80
2018-06-18T08:56:52.448Z,9.40
2018-06-18T08:57:52.266Z,11.50
2018-06-18T08:58:51.685Z,8.80
2018-06-18T08:59:52.877Z,10.30
2018-06-18T09:00:51.680Z,8.80
2018-06-18T09:01:54.031Z,10.20
2018-06-18T09:02:52.191Z,7.80
2018-06-18T09:03:52.212Z,7.80
2018-06-18T09:04:52.419Z,9.20
2018-06-18T09:05:52.097Z,9.70
2018-06-18T09:06:52.441Z,8.60
2018-06-18T09:07:52.723Z,9.50
2018-06-18T09:08:51.988Z,7.50
2018-06-18T09:09:52.416Z,8.70
2018-06-18T09:10:54.444Z,8.30
2018-06-18T09:11:52.810Z,8.70
2018-06-18T09:12:52.447Z,9.20
2018-06-18T09:13:52.195Z,9.20
2018-06-18T09:14:52.446Z,8.60
2018-06-18T09:15:51.697Z,8.00
2018-06-18T09:16:52.209Z,8.80
2018-06-18T09:17:52.448Z,7.20
2018-06-18T09:18:52.752Z,7.80
2018-06-18T09:19:52.237Z,8.20
2018-06-18T09:20:52.778Z,8.50
2018-06-18T09:21:52.232Z,8.50
2018-06-18T09:22:52.502Z,7.90
2018-06-18T09:23:52.410Z,8.00
2018-06-18T09:24:52.445Z,7.70
2018-06-18T09:25:52.189Z,7.30
2018-06-18T09:26:52.494Z,6.80
2018-06-18T09:27:52.812Z,7.20
2018-06-18T09:28:52.643Z,7.00
2018-06-18T09:29:52.248Z,7.70
2018-06-18T09:30:51.763Z,7.20
2018-06-18T09:31:52.761Z,7.30
2018-06-18T09:32:52.231Z,7.40
2018-06-18T09:33:52.502Z,7.80
2018-06-18T09:34:52.454Z,8.00
2018-06-18T09:35:52.195Z,7.60
2018-06-18T09:36:52.494Z,7.10
2018-06-18T09:37:51.672Z,8.00
2018-06-18T09:38:54.756Z,9.00
2018-06-18T09:39:52.211Z,7.80
2018-06-18T09:40:52.466Z,8.10
2018-06-18T09:41:54.454Z,8.30
2018-06-18T09:42:51.717Z,7.70
2018-06-18T09:43:52.456Z,8.00
2018-06-18T09:44:51.996Z,7.40
2018-06-18T09:45:52.215Z,7.00
2018-06-18T09:46:52.462Z,8.40
2018-06-18T09:47:51.989Z,7.20
2018-06-18T09:48:52.429Z,6.90
2018-06-18T09:49:52.742Z,8.40
2018-06-18T09:50:51.984Z,6.40
2018-06-18T09:51:51.958Z,7.10
2018-06-18T09:52:52.207Z,6.20
2018-06-18T09:53:50.642Z,7.00
2018-06-18T09:54:58.283Z,6.90
2018-06-18T09:55:52.414Z,7.20
2018-06-18T09:56:52.251Z,6.50
2018-06-18T09:57:52.777Z,6.60
2018-06-18T09:58:51.973Z,6.70
2018-06-18T09:59:51.967Z,6.30
2018-06-18T10:00:52.228Z,6.10
2018-06-18T10:01:52.765Z,6.90
2018-06-18T10:02:52.443Z,6.00
2018-06-18T10:03:54.503Z,7.40
2018-06-18T10:04:53.974Z,6.70
2018-06-18T10:05:52.468Z,6.70
2018-06-18T10:06:52.473Z,7.30
2018-06-18T10:07:52.490Z,7.30
2018-06-18T10:08:52.485Z,6.70
2018-06-18T10:09:52.462Z,8.20
2018-06-18T10:10:52.242Z,6.00
2018-06-18T10:11:52.268Z,8.00
2018-06-18T10:12:54.463Z,6.60
2018-06-18T10:13:52.411Z,6.60
2018-06-18T10:14:52.469Z,6.30
2018-06-18T10:15:52.355Z,6.70
2018-06-18T10:16:52.493Z,6.50
2018-06-18T10:17:52.781Z,6.10
2018-06-18T10:18:52.423Z,6.50
2018-06-18T10:19:52.477Z,7.80
2018-06-18T10:20:52.448Z,5.80
2018-06-18T10:21:57.824Z,6.40
2018-06-18T10:22:52.515Z,6.00
2018-06-18T10:23:52.163Z,5.90
2018-06-18T10:24:52.472Z,6.00
2018-06-18T10:25:52.528Z,6.80
2018-06-18T10:26:52.515Z,6.60
2018-06-18T10:27:51.983Z,6.40
2018-06-18T10:28:52.195Z,6.00
2018-06-18T10:29:51.665Z,6.10
2018-06-18T10:30:52.268Z,6.10
2018-06-18T10:31:52.032Z,5.80
2018-06-18T10:32:52.476Z,7.40
2018-06-18T10:33:51.726Z,7.00
2018-06-18T10:34:52.252Z,6.80
2018-06-18T10:35:58.927Z,7.40
2018-06-18T10:36:58.495Z,6.80
2018-06-18T10:37:51.765Z,6.70
2018-06-18T10:38:52.491Z,7.00
2018-06-18T10:39:52.469Z,8.50
2018-06-18T10:40:52.223Z,7.20
2018-06-18T10:41:52.480Z,6.70
2018-06-18T10:42:52.499Z,7.00
2018-06-18T10:43:52.194Z,7.10
2018-06-18T10:44:52.495Z,7.80
2018-06-18T10:45:52.483Z,7.70
2018-06-18T10:46:52.684Z,7.90
2018-06-18T10:47:52.802Z,7.90
2018-06-18T10:48:52.495Z,7.30
2018-06-18T10:49:52.489Z,7.80
2018-06-18T10:50:52.350Z,8.20
2018-06-18T10:51:52.233Z,8.70
2018-06-18T10:52:52.529Z,7.00
2018-06-18T10:53:52.990Z,6.80
2018-06-18T10:54:51.739Z,7.60
2018-06-18T10:55:52.486Z,7.90
2018-06-18T10:56:52.836Z,9.10
2018-06-18T10:57:54.787Z,9.80
2018-06-18T10:58:52.786Z,8.70
2018-06-18T10:59:52.529Z,9.00
2018-06-18T11:00:53.242Z,8.90
2018-06-18T11:01:52.336Z,9.50
2018-06-18T11:02:52.507Z,8.90
2018-06-18T11:03:52.384Z,9.30
2018-06-18T11:04:51.785Z,8.70
2018-06-18T11:05:52.487Z,9.40
2018-06-18T11:06:52.814Z,8.80
2018-06-18T11:07:55.122Z,9.40
2018-06-18T11:08:52.247Z,9.60
2018-06-18T11:09:52.225Z,8.70
2018-06-18T11:10:52.530Z,8.90
2018-06-18T11:11:52.032Z,9.30
2018-06-18T11:12:52.817Z,10.60
2018-06-18T11:13:52.491Z,9.50
2018-06-18T11:14:51.818Z,9.80
2018-06-18T11:15:52.512Z,9.10
2018-06-18T11:16:52.382Z,9.10
2018-06-18T11:17:52.206Z,9.00
2018-06-18T11:18:54.475Z,9.50
2018-06-18T11:19:52.219Z,8.20
2018-06-18T11:20:52.799Z,9.00
2018-06-18T11:21:52.262Z,8.90
2018-06-18T11:22:52.306Z,9.10
2018-06-18T11:23:52.500Z,8.70
2018-06-18T11:25:00.485Z,9.00
2018-06-18T11:25:52.227Z,8.60
2018-06-18T11:26:52.627Z,8.60
2018-06-18T11:27:52.397Z,9.90
2018-06-18T11:28:51.843Z,7.90
2018-06-18T11:29:52.289Z,8.00
2018-06-18T11:30:52.541Z,6.30
2018-06-18T11:31:52.229Z,7.90
2018-06-18T11:32:52.221Z,7.00
2018-06-18T11:33:52.237Z,6.80
2018-06-18T11:34:52.293Z,7.50
2018-06-18T11:35:58.714Z,6.80
2018-06-18T11:36:52.533Z,6.50
2018-06-18T11:37:52.684Z,6.20
2018-06-18T11:38:52.783Z,6.60
2018-06-18T11:39:52.500Z,7.40
2018-06-18T11:41:58.377Z,6.70
2018-06-18T11:42:52.548Z,8.40
2018-06-18T11:43:52.505Z,8.20
2018-06-18T11:44:52.294Z,7.50
2018-06-18T11:45:52.609Z,7.80
2018-06-18T11:46:52.505Z,7.60
2018-06-18T11:47:52.338Z,7.90
2018-06-18T11:48:52.509Z,7.30
2018-06-18T11:49:52.481Z,9.10
2018-06-18T11:50:52.464Z,7.60
2018-06-18T11:51:52.561Z,6.90
2018-06-18T11:52:52.283Z,6.90
2018-06-18T11:53:52.508Z,6.90
2018-06-18T11:54:52.512Z,7.00
2018-06-18T11:55:52.363Z,7.30
2018-06-18T11:56:52.253Z,6.40
2018-06-18T11:57:52.501Z,6.40
2018-06-18T11:58:52.255Z,6.60
2018-06-18T11:59:52.512Z,6.20
2018-06-18T12:00:53.059Z,6.40
2018-06-18T12:01:52.588Z,7.50
2018-06-18T12:02:51.939Z,6.30
2018-06-18T12:03:52.255Z,6.50
2018-06-18T12:04:52.513Z,6.30
2018-06-18T12:05:52.507Z,6.00
2018-06-18T12:06:52.520Z,5.90
2018-06-18T12:07:52.503Z,8.90
2018-06-18T12:08:52.817Z,7.60
2018-06-18T12:09:52.356Z,6.30
2018-06-18T12:10:52.521Z,6.40
2018-06-18T12:11:51.901Z,6.30
2018-06-18T12:12:52.902Z,5.40
2018-06-18T12:13:52.535Z,7.00
2018-06-18T12:14:52.317Z,6.70
2018-06-18T12:15:52.296Z,7.10
2018-06-18T12:16:53.520Z,5.70
2018-06-18T12:17:52.511Z,6.50
2018-06-18T12:18:52.518Z,7.30
2018-06-18T12:19:52.295Z,5.30
2018-06-18T12:20:52.277Z,7.10
2018-06-18T12:21:52.322Z,5.70
2018-06-18T12:22:52.288Z,7.60
2018-06-18T12:23:52.314Z,7.90
2018-06-18T12:24:52.529Z,6.20
2018-06-18T12:25:52.253Z,6.60
2018-06-18T12:26:52.539Z,5.60
2018-06-18T12:27:52.254Z,8.40
2018-06-18T12:28:52.525Z,5.30
2018-06-18T12:29:52.252Z,7.50
2018-06-18T12:30:52.561Z,5.10
2018-06-18T12:31:52.576Z,4.70
2018-06-18T12:32:52.570Z,4.60
2018-06-18T12:33:52.298Z,4.60
2018-06-18T12:34:52.507Z,5.60
2018-06-18T12:35:53.524Z,4.60
2018-06-18T12:36:52.525Z,5.00
2018-06-18T12:37:52.294Z,4.70
2018-06-18T12:38:52.287Z,6.40
2018-06-18T12:39:52.521Z,3.90
2018-06-18T12:40:52.525Z,4.60
2018-06-18T12:41:52.519Z,4.30
2018-06-18T12:42:52.279Z,3.50
2018-06-18T12:43:52.228Z,3.70
2018-06-18T12:44:52.529Z,4.10
2018-06-18T12:45:53.170Z,3.90
2018-06-18T12:46:54.440Z,4.10
2018-06-18T12:47:52.644Z,5.40
2018-06-18T12:48:52.399Z,3.70
2018-06-18T12:49:54.521Z,4.20
2018-06-18T12:50:52.256Z,3.90
2018-06-18T12:51:52.530Z,3.60
2018-06-18T12:52:51.988Z,3.50
2018-06-18T12:53:53.981Z,4.50
2018-06-18T12:54:54.280Z,6.60
2018-06-18T12:55:52.537Z,4.80
2018-06-18T12:56:52.318Z,3.80
2018-06-18T12:57:52.330Z,4.50
2018-06-18T12:58:52.290Z,3.60
2018-06-18T12:59:52.544Z,4.80
2018-06-18T13:00:52.265Z,4.10
2018-06-18T13:01:52.309Z,3.30
2018-06-18T13:02:52.529Z,3.50
2018-06-18T13:03:52.573Z,3.90
2018-06-18T13:04:52.312Z,3.50
2018-06-18T13:05:52.617Z,3.30
2018-06-18T13:06:52.310Z,4.30
2018-06-18T13:07:52.332Z,4.10
2018-06-18T13:08:52.351Z,5.00
2018-06-18T13:09:52.279Z,5.90
2018-06-18T13:10:52.542Z,4.10
2018-06-18T13:11:52.845Z,5.40
2018-06-18T13:12:52.540Z,4.90
2018-06-18T13:13:52.557Z,6.70
2018-06-18T13:14:52.623Z,4.80